»·PEaware :: AAL5152 KLAS-MDST

AAL5152 :: KLAS-MDST

FLIGHT INFORMATION

Flight Status: Arrived
Operator:
American Airlines
More flights by this operator :: More flights under this callsign
Pilot: Ricardo U. (11497)
Aircraft: AIRBUS A320
(A320)
More flights by this aircraft type
Origin: KLAS McCarran Intl
United States
Destination: MDST Cibao Intl
Dominican Republic
More flights between these airports :: More routes between these airports
Route: COWBY8 INW CNX ABI J50 LFK LEV BLVNS MTH ALBBE RETAK RETAK1P
File this flight plan on PilotEdge
Remarks:
Altitude:
(Current/Filed)
35,000ft
Speed:
(Current/Filed)
400kts
Departed: 16-Jul-18 06:43 PM
Arrived: 17-Jul-18 12:40 AM
Distance/Time
Traveled:
2542nm/5:57
Distance/Time
To Go:
Arrived

Flight Plot

Page will automatically refresh every two minutes.

Flight plan parsing failed; only flown route is shown


Map Options




Map Legend


Flown Route
Filed Route
Departure Airport
Arrival Airport
Navaid (VOR, NDB)
Fix

Horizontal Profiles

Position Reports

Time Latitude Longitude Heading Altitude Ground
Speed
16-Jul-18 17:57 36.082861 -115.153584 103 2129ft 0kts
16-Jul-18 17:58 36.082861 -115.153584 103 2129ft 0kts
16-Jul-18 17:59 36.082861 -115.153584 103 2129ft 0kts
16-Jul-18 18:00 36.082861 -115.153584 103 2129ft 0kts
16-Jul-18 18:01 36.082861 -115.153584 103 2129ft 0kts
16-Jul-18 18:02 36.082861 -115.153584 103 2129ft 0kts
16-Jul-18 18:03 36.082861 -115.153584 103 2129ft 0kts
16-Jul-18 18:04 36.082861 -115.153584 103 2129ft 0kts
16-Jul-18 18:05 36.082861 -115.153584 103 2129ft 0kts
16-Jul-18 18:06 36.082861 -115.153584 103 2129ft 0kts
16-Jul-18 18:07 36.082861 -115.153584 103 2129ft 0kts
16-Jul-18 18:08 36.082861 -115.153584 103 2129ft 0kts
16-Jul-18 18:09 36.082861 -115.153584 103 2129ft 0kts
16-Jul-18 18:10 36.082861 -115.153584 103 2129ft 0kts
16-Jul-18 18:11 36.082861 -115.153584 103 2129ft 0kts
16-Jul-18 18:12 36.082861 -115.153584 103 2129ft 0kts
16-Jul-18 18:13 36.082861 -115.153584 103 2129ft 0kts
16-Jul-18 18:14 36.082861 -115.153584 103 2129ft 0kts
16-Jul-18 18:15 36.082861 -115.153584 103 2129ft 0kts
16-Jul-18 18:16 36.082861 -115.153584 103 2129ft 0kts
16-Jul-18 18:17 36.082861 -115.153584 103 2129ft 0kts
16-Jul-18 18:18 36.082861 -115.153584 103 2129ft 0kts
16-Jul-18 18:19 36.082861 -115.153584 103 2129ft 0kts
16-Jul-18 18:20 36.082861 -115.153584 103 2129ft 0kts
16-Jul-18 18:21 36.082861 -115.153584 103 2129ft 0kts
16-Jul-18 18:22 36.082861 -115.153584 103 2129ft 0kts
16-Jul-18 18:23 36.082861 -115.153584 103 2129ft 0kts
16-Jul-18 18:24 36.082861 -115.153584 103 2129ft 0kts
16-Jul-18 18:25 36.082861 -115.153584 103 2129ft 0kts
16-Jul-18 18:26 36.082861 -115.153584 103 2129ft 0kts
16-Jul-18 18:27 36.082861 -115.153584 103 2129ft 0kts
16-Jul-18 18:28 36.082861 -115.153584 103 2129ft 0kts
16-Jul-18 18:29 36.082861 -115.153584 103 2129ft 0kts
16-Jul-18 18:30 36.082878 -115.153665 103 2129ft 2kts
16-Jul-18 18:31 36.083023 -115.154423 125 2129ft 2kts
16-Jul-18 18:32 36.083564 -115.154557 222 2129ft 2kts
16-Jul-18 18:33 36.083680 -115.154342 246 2129ft 0kts
16-Jul-18 18:34 36.083680 -115.154343 246 2129ft 0kts
16-Jul-18 18:35 36.083063 -115.155690 203 2129ft 8kts
16-Jul-18 18:36 36.079994 -115.154059 154 2129ft 19kts
16-Jul-18 18:37 36.077784 -115.149552 93 2129ft 16kts
16-Jul-18 18:38 36.077480 -115.143278 90 2129ft 21kts
16-Jul-18 18:39 36.077525 -115.137020 89 2129ft 21kts
16-Jul-18 18:40 36.077545 -115.128616 90 2129ft 18kts
16-Jul-18 18:41 36.077481 -115.122524 115 2129ft 11kts
16-Jul-18 18:42 36.077115 -115.122340 182 2129ft 0kts
16-Jul-18 18:43 36.076353 -115.122987 268 2129ft 0kts
16-Jul-18 18:44 36.076312 -115.142486 270 2133ft 177kts
16-Jul-18 18:45 36.076306 -115.202841 270 3812ft 184kts
16-Jul-18 18:46 36.053403 -115.264810 199 4346ft 253kts
16-Jul-18 18:47 35.980412 -115.296887 198 5825ft 291kts
16-Jul-18 18:48 35.891599 -115.270960 159 8934ft 294kts
16-Jul-18 18:49 35.851322 -115.206337 105 10721ft 308kts
16-Jul-18 18:50 35.826605 -115.095141 104 11707ft 365kts
16-Jul-18 18:51 35.830711 -114.969424 81 13797ft 372kts
16-Jul-18 18:52 35.842601 -114.840138 83 15735ft 383kts
16-Jul-18 18:53 35.854537 -114.707786 83 17482ft 393kts
16-Jul-18 18:54 35.866510 -114.571932 83 19146ft 403kts
16-Jul-18 18:55 35.878659 -114.433077 83 20575ft 413kts
16-Jul-18 18:56 35.890908 -114.290888 82 21912ft 421kts
16-Jul-18 18:57 35.903227 -114.145705 82 23116ft 430kts
16-Jul-18 18:58 35.915631 -113.997455 82 24270ft 438kts
16-Jul-18 18:59 35.913046 -113.846480 102 25353ft 449kts
16-Jul-18 19:00 35.880912 -113.695867 102 26392ft 458kts
16-Jul-18 19:01 35.849808 -113.542256 103 27351ft 465kts
16-Jul-18 19:02 35.817531 -113.386528 103 28306ft 472kts
16-Jul-18 19:03 35.784641 -113.228615 103 29171ft 478kts
16-Jul-18 19:04 35.751364 -113.069892 104 30282ft 477kts
16-Jul-18 19:05 35.717992 -112.911614 104 31263ft 478kts
16-Jul-18 19:06 35.684377 -112.754278 105 32462ft 474kts
16-Jul-18 19:07 35.650994 -112.598226 105 33520ft 471kts
16-Jul-18 19:08 35.617503 -112.442891 105 34491ft 469kts
16-Jul-18 19:09 35.574524 -112.292306 114 35302ft 467kts
16-Jul-18 19:10 35.524731 -112.144866 113 35371ft 467kts
16-Jul-18 19:11 35.475195 -111.997507 113 35376ft 467kts
16-Jul-18 19:12 35.425508 -111.850449 113 35355ft 466kts
16-Jul-18 19:13 35.375525 -111.703589 112 35296ft 473kts
16-Jul-18 19:14 35.325134 -111.555974 113 35308ft 466kts
16-Jul-18 19:15 35.274752 -111.409137 113 35347ft 469kts
16-Jul-18 19:16 35.224263 -111.262762 113 35330ft 465kts
16-Jul-18 19:17 35.174006 -111.117662 113 35325ft 464kts
16-Jul-18 19:18 35.123300 -110.972011 113 35295ft 464kts
16-Jul-18 19:19 35.072730 -110.827231 112 35266ft 464kts
16-Jul-18 19:20 35.047249 -110.673481 96 35249ft 464kts
16-Jul-18 19:21 35.029525 -110.517437 98 35270ft 463kts
16-Jul-18 19:22 35.011489 -110.362121 97 35276ft 462kts
16-Jul-18 19:23 34.992993 -110.206547 98 35268ft 462kts
16-Jul-18 19:24 34.974508 -110.051478 98 35293ft 461kts
16-Jul-18 19:25 34.955814 -109.896745 97 35331ft 460kts
16-Jul-18 19:26 34.937012 -109.742758 97 35345ft 460kts
16-Jul-18 19:27 34.918024 -109.588837 97 35346ft 459kts
16-Jul-18 19:28 34.898947 -109.435230 98 35344ft 458kts
16-Jul-18 19:29 34.879554 -109.281777 98 35271ft 458kts
16-Jul-18 19:30 34.859997 -109.128317 98 35245ft 458kts
16-Jul-18 19:31 34.840215 -108.974710 98 35298ft 459kts
16-Jul-18 19:32 34.820316 -108.821378 98 35356ft 457kts
16-Jul-18 19:33 34.800260 -108.668866 98 35375ft 456kts
16-Jul-18 19:34 34.780082 -108.516608 98 35387ft 455kts
16-Jul-18 19:35 34.759766 -108.364731 98 35357ft 453kts
16-Jul-18 19:36 34.739222 -108.213354 97 35317ft 454kts
16-Jul-18 19:37 34.718626 -108.062001 98 35334ft 453kts
16-Jul-18 19:38 34.697759 -107.911300 98 35353ft 451kts
16-Jul-18 19:39 34.676838 -107.760634 98 35378ft 452kts
16-Jul-18 19:40 34.655731 -107.610385 98 35375ft 452kts
16-Jul-18 19:41 34.634394 -107.459945 98 35345ft 452kts
16-Jul-18 19:42 34.612838 -107.309152 98 35313ft 452kts
16-Jul-18 19:43 34.591205 -107.159256 98 35289ft 452kts
16-Jul-18 19:44 34.569334 -107.008929 98 35263ft 451kts
16-Jul-18 19:45 34.547258 -106.859187 99 35245ft 451kts
16-Jul-18 19:46 34.525086 -106.709650 99 35229ft 451kts
16-Jul-18 19:47 34.502750 -106.560059 99 35255ft 450kts
16-Jul-18 19:48 34.480208 -106.410630 99 35265ft 449kts
16-Jul-18 19:49 34.457641 -106.262317 99 35262ft 448kts
16-Jul-18 19:50 34.434794 -106.113740 99 35266ft 448kts
16-Jul-18 19:51 34.411905 -105.965947 99 35294ft 446kts
16-Jul-18 19:52 34.388848 -105.818395 99 35331ft 446kts
16-Jul-18 19:53 34.364442 -105.670665 105 35393ft 447kts
16-Jul-18 19:54 34.322489 -105.528593 108 35406ft 449kts
16-Jul-18 19:55 34.280675 -105.386482 108 35422ft 449kts
16-Jul-18 19:56 34.238233 -105.244585 108 35408ft 449kts
16-Jul-18 19:57 34.195752 -105.102476 108 35363ft 449kts
16-Jul-18 19:58 34.153067 -104.960547 108 35345ft 449kts
16-Jul-18 19:59 34.110351 -104.819363 109 35326ft 448kts
16-Jul-18 20:00 34.067485 -104.678192 109 35304ft 448kts
16-Jul-18 20:01 34.024465 -104.537101 109 35284ft 447kts
16-Jul-18 20:02 33.981381 -104.396438 109 35236ft 447kts
16-Jul-18 20:03 33.938268 -104.256412 109 35228ft 444kts
16-Jul-18 20:04 33.895178 -104.117481 109 35158ft 444kts
16-Jul-18 20:05 33.851744 -103.977580 109 35176ft 447kts
16-Jul-18 20:06 33.808013 -103.837736 110 35246ft 447kts
16-Jul-18 20:07 33.764206 -103.697959 110 35243ft 445kts
16-Jul-18 20:08 33.720487 -103.559553 110 35201ft 444kts
16-Jul-18 20:09 33.676610 -103.420765 110 35156ft 443kts
16-Jul-18 20:10 33.632786 -103.282976 110 35165ft 443kts
16-Jul-18 20:11 33.588612 -103.145043 110 35246ft 442kts
16-Jul-18 20:12 33.544573 -103.007599 111 35236ft 442kts
16-Jul-18 20:13 33.500392 -102.870444 111 35217ft 440kts
16-Jul-18 20:14 33.455904 -102.733368 111 35150ft 440kts
16-Jul-18 20:15 33.411586 -102.596803 111 35144ft 441kts
16-Jul-18 20:16 33.366815 -102.459896 111 35188ft 441kts
16-Jul-18 20:17 33.321960 -102.323278 112 35223ft 441kts
16-Jul-18 20:18 33.277007 -102.186959 111 35219ft 442kts
16-Jul-18 20:19 33.231827 -102.050403 112 35218ft 440kts
16-Jul-18 20:20 33.186782 -101.914834 112 35137ft 440kts
16-Jul-18 20:21 33.141469 -101.779182 112 35130ft 439kts
16-Jul-18 20:22 33.096027 -101.643639 112 35125ft 439kts
16-Jul-18 20:23 33.050607 -101.508730 112 35133ft 439kts
16-Jul-18 20:24 33.005022 -101.373969 112 35150ft 438kts
16-Jul-18 20:25 32.959213 -101.238995 112 35150ft 438kts
16-Jul-18 20:26 32.913311 -101.104533 112 35148ft 438kts
16-Jul-18 20:27 32.867408 -100.970486 112 35148ft 438kts
16-Jul-18 20:28 32.821305 -100.836360 113 35148ft 438kts
16-Jul-18 20:29 32.775023 -100.702091 113 35175ft 437kts
16-Jul-18 20:30 32.728688 -100.568743 113 35180ft 437kts
16-Jul-18 20:31 32.682223 -100.435005 113 35174ft 437kts
16-Jul-18 20:32 32.635533 -100.301682 113 35173ft 436kts
16-Jul-18 20:33 32.588999 -100.168905 113 35149ft 435kts
16-Jul-18 20:34 32.542410 -100.036683 113 35116ft 435kts
16-Jul-18 20:35 32.495481 -99.904149 113 35053ft 436kts
16-Jul-18 20:36 32.452597 -99.769623 110 35009ft 436kts
16-Jul-18 20:37 32.411486 -99.634497 110 35043ft 437kts
16-Jul-18 20:38 32.370204 -99.499262 110 35124ft 437kts
16-Jul-18 20:39 32.328637 -99.363813 110 35123ft 438kts
16-Jul-18 20:40 32.286810 -99.228200 110 35125ft 439kts
16-Jul-18 20:41 32.244781 -99.092542 110 35119ft 440kts
16-Jul-18 20:42 32.202608 -98.956844 111 35116ft 441kts
16-Jul-18 20:43 32.160067 -98.820637 111 35091ft 441kts
16-Jul-18 20:44 32.117346 -98.684598 110 35054ft 444kts
16-Jul-18 20:45 32.074164 -98.547681 110 35057ft 447kts
16-Jul-18 20:46 32.030592 -98.410009 110 35139ft 449kts
16-Jul-18 20:47 31.986770 -98.272326 110 35147ft 447kts
16-Jul-18 20:48 31.943173 -98.135680 110 35124ft 446kts
16-Jul-18 20:49 31.899265 -97.998707 111 35063ft 447kts
16-Jul-18 20:50 31.855241 -97.862036 111 35079ft 447kts
16-Jul-18 20:51 31.810980 -97.725223 111 35067ft 447kts
16-Jul-18 20:52 31.766573 -97.588499 111 35109ft 447kts
16-Jul-18 20:53 31.722122 -97.452174 111 35106ft 448kts
16-Jul-18 20:54 31.677422 -97.315598 111 35098ft 448kts
16-Jul-18 20:55 31.644327 -97.174741 102 35096ft 448kts
16-Jul-18 20:56 31.622697 -97.055865 103 35093ft 448kts
16-Jul-18 20:57 31.591197 -96.889080 102 35099ft 448kts
16-Jul-18 20:58 31.564286 -96.746433 102 35061ft 448kts
16-Jul-18 20:59 31.541759 -96.627636 103 35086ft 448kts
16-Jul-18 21:00 31.514532 -96.485148 103 35059ft 449kts
16-Jul-18 21:01 31.482566 -96.318800 103 35072ft 449kts
16-Jul-18 21:02 31.454872 -96.175983 103 35083ft 449kts
16-Jul-18 21:03 31.431871 -96.057505 103 35096ft 449kts
16-Jul-18 21:04 31.403864 -95.914846 103 35074ft 450kts
16-Jul-18 21:05 31.375761 -95.772036 103 35138ft 449kts
16-Jul-18 21:06 31.347459 -95.629362 103 35157ft 450kts
16-Jul-18 21:07 31.319071 -95.487189 103 35160ft 448kts
16-Jul-18 21:08 31.290605 -95.345430 103 35130ft 448kts
16-Jul-18 21:09 31.261961 -95.203517 103 35088ft 448kts
16-Jul-18 21:10 31.233077 -95.061499 103 35061ft 449kts
16-Jul-18 21:11 31.204057 -94.919592 103 35044ft 448kts
16-Jul-18 21:12 31.174997 -94.778205 103 35035ft 448kts
16-Jul-18 21:13 31.132434 -94.641828 115 35044ft 449kts
16-Jul-18 21:14 31.078374 -94.510552 114 35138ft 448kts
16-Jul-18 21:15 31.024798 -94.378785 115 35145ft 449kts
16-Jul-18 21:16 30.971110 -94.247615 115 35155ft 447kts
16-Jul-18 21:17 30.917463 -94.117027 115 35105ft 447kts
16-Jul-18 21:18 30.863547 -93.986295 115 35080ft 447kts
16-Jul-18 21:19 30.809576 -93.855793 115 35089ft 448kts
16-Jul-18 21:20 30.755583 -93.725737 115 35164ft 447kts
16-Jul-18 21:21 30.701243 -93.595368 115 35165ft 447kts
16-Jul-18 21:22 30.647012 -93.465573 115 35163ft 446kts
16-Jul-18 21:23 30.592620 -93.335959 115 35145ft 447kts
16-Jul-18 21:24 30.537978 -93.206178 115 35127ft 447kts
16-Jul-18 21:25 30.483306 -93.076796 115 35077ft 448kts
16-Jul-18 21:26 30.428375 -92.947207 115 35090ft 448kts
16-Jul-18 21:27 30.373243 -92.817564 115 35099ft 448kts
16-Jul-18 21:28 30.318241 -92.688682 115 35151ft 447kts
16-Jul-18 21:29 30.262857 -92.559409 115 35154ft 448kts
16-Jul-18 21:30 30.207436 -92.430472 115 35153ft 448kts
16-Jul-18 21:31 30.151937 -92.301734 115 35162ft 448kts
16-Jul-18 21:32 30.096306 -92.173195 115 35161ft 447kts
16-Jul-18 21:33 30.040600 -92.044880 115 35130ft 447kts
16-Jul-18 21:34 29.984668 -91.916605 115 35097ft 447kts
16-Jul-18 21:35 29.928663 -91.788460 115 35076ft 447kts
16-Jul-18 21:36 29.872700 -91.660808 115 35073ft 447kts
16-Jul-18 21:37 29.816506 -91.533110 115 35076ft 447kts
16-Jul-18 21:38 29.760095 -91.405338 115 35109ft 447kts
16-Jul-18 21:39 29.703572 -91.277656 115 35114ft 447kts
16-Jul-18 21:40 29.646975 -91.150300 115 35119ft 447kts
16-Jul-18 21:41 29.590274 -91.023172 115 35130ft 448kts
16-Jul-18 21:42 29.533248 -90.895681 115 35137ft 448kts
16-Jul-18 21:43 29.476244 -90.768662 115 35176ft 448kts
16-Jul-18 21:44 29.418812 -90.641160 115 35177ft 449kts
16-Jul-18 21:45 29.361438 -90.514026 115 35175ft 449kts
16-Jul-18 21:46 29.303833 -90.386936 115 35178ft 449kts
16-Jul-18 21:47 29.246152 -90.260137 115 35183ft 449kts
16-Jul-18 21:48 29.188264 -90.133077 115 35183ft 450kts
16-Jul-18 21:49 29.137124 -90.002676 110 35177ft 448kts
16-Jul-18 21:50 29.088144 -89.871664 111 35133ft 448kts
16-Jul-18 21:51 29.038990 -89.740647 111 35124ft 448kts
16-Jul-18 21:52 28.989694 -89.609972 111 35089ft 448kts
16-Jul-18 21:53 28.940403 -89.479630 111 35090ft 447kts
16-Jul-18 21:54 28.890863 -89.349143 111 35083ft 447kts
16-Jul-18 21:55 28.841326 -89.219061 111 35100ft 447kts
16-Jul-18 21:56 28.791657 -89.089136 111 35132ft 447kts
16-Jul-18 21:57 28.741943 -88.959517 111 35139ft 447kts
16-Jul-18 21:58 28.691878 -88.829417 111 35148ft 447kts
16-Jul-18 21:59 28.641851 -88.699910 111 35177ft 447kts
16-Jul-18 22:00 28.591774 -88.570602 111 35201ft 446kts
16-Jul-18 22:01 28.541561 -88.441434 111 35206ft 446kts
16-Jul-18 22:02 28.491341 -88.312794 111 35204ft 446kts
16-Jul-18 22:03 28.440886 -88.183910 111 35180ft 445kts
16-Jul-18 22:04 28.390459 -88.055428 111 35144ft 446kts
16-Jul-18 22:05 28.331725 -87.931090 116 35129ft 447kts
16-Jul-18 22:06 28.271274 -87.807698 116 35111ft 446kts
16-Jul-18 22:07 28.210695 -87.684457 116 35116ft 447kts
16-Jul-18 22:08 28.150175 -87.561621 116 35166ft 447kts
16-Jul-18 22:09 28.089414 -87.438621 116 35169ft 448kts
16-Jul-18 22:10 28.028366 -87.315445 116 35200ft 449kts
16-Jul-18 22:11 27.967287 -87.192610 116 35201ft 447kts
16-Jul-18 22:12 27.906389 -87.070381 116 35194ft 443kts
16-Jul-18 22:13 27.845724 -86.948996 116 35108ft 443kts
16-Jul-18 22:14 27.785016 -86.827984 116 35142ft 444kts
16-Jul-18 22:15 27.723818 -86.706265 116 35194ft 445kts
16-Jul-18 22:16 27.662683 -86.585095 116 35197ft 445kts
16-Jul-18 22:17 27.601379 -86.463826 116 35194ft 444kts
16-Jul-18 22:18 27.539893 -86.342541 116 35158ft 445kts
16-Jul-18 22:19 27.478469 -86.221836 116 35137ft 445kts
16-Jul-18 22:20 27.416768 -86.100808 116 35139ft 445kts
16-Jul-18 22:21 27.355066 -85.980225 116 35142ft 445kts
16-Jul-18 22:22 27.293485 -85.860110 116 35186ft 444kts
16-Jul-18 22:23 27.231468 -85.739508 116 35196ft 444kts
16-Jul-18 22:24 27.169550 -85.619408 116 35193ft 444kts
16-Jul-18 22:25 27.107684 -85.499838 116 35179ft 443kts
16-Jul-18 22:26 27.045657 -85.380198 117 35158ft 441kts
16-Jul-18 22:27 26.984073 -85.261736 117 35119ft 441kts
16-Jul-18 22:28 26.921902 -85.142494 117 35105ft 441kts
16-Jul-18 22:29 26.859861 -85.023861 117 35103ft 441kts
16-Jul-18 22:30 26.797833 -84.905528 117 35111ft 441kts
16-Jul-18 22:31 26.735537 -84.786939 117 35125ft 442kts
16-Jul-18 22:32 26.673180 -84.668698 117 35193ft 441kts
16-Jul-18 22:33 26.610858 -84.550718 117 35191ft 442kts
16-Jul-18 22:34 26.548338 -84.432702 117 35196ft 441kts
16-Jul-18 22:35 26.485686 -84.314770 117 35203ft 441kts
16-Jul-18 22:36 26.422892 -84.196827 117 35206ft 441kts
16-Jul-18 22:37 26.360174 -84.079422 117 35210ft 441kts
16-Jul-18 22:38 26.297429 -83.962277 117 35209ft 441kts
16-Jul-18 22:39 26.234480 -83.845011 117 35209ft 441kts
16-Jul-18 22:40 26.171360 -83.727746 117 35205ft 441kts
16-Jul-18 22:41 26.108424 -83.611076 117 35201ft 441kts
16-Jul-18 22:42 26.045092 -83.493993 117 35176ft 441kts
16-Jul-18 22:43 25.981684 -83.377028 118 35183ft 442kts
16-Jul-18 22:44 25.918083 -83.260167 117 35211ft 441kts
16-Jul-18 22:45 25.854552 -83.143618 118 35205ft 442kts
16-Jul-18 22:46 25.790636 -83.026665 118 35175ft 443kts
16-Jul-18 22:47 25.726636 -82.909872 118 35191ft 443kts
16-Jul-18 22:48 25.662361 -82.792925 118 35207ft 444kts
16-Jul-18 22:49 25.598207 -82.676402 118 35211ft 444kts
16-Jul-18 22:50 25.533495 -82.559270 118 35221ft 445kts
16-Jul-18 22:51 25.468830 -82.442390 118 35218ft 445kts
16-Jul-18 22:52 25.404141 -82.325819 118 35219ft 445kts
16-Jul-18 22:53 25.339345 -82.209329 118 35219ft 445kts
16-Jul-18 22:54 25.274267 -82.092662 118 35220ft 445kts
16-Jul-18 22:55 25.209318 -81.976480 118 35220ft 445kts
16-Jul-18 22:56 25.144168 -81.860163 118 35219ft 445kts
16-Jul-18 22:57 25.078955 -81.744191 118 35220ft 444kts
16-Jul-18 22:58 25.013945 -81.628701 118 35217ft 444kts
16-Jul-18 22:59 24.948603 -81.512985 119 35214ft 444kts
16-Jul-18 23:00 24.883343 -81.397730 119 35217ft 443kts
16-Jul-18 23:01 24.818121 -81.282682 119 35213ft 441kts
16-Jul-18 23:02 24.753080 -81.168315 119 35130ft 441kts
16-Jul-18 23:03 24.691683 -81.051239 113 35138ft 441kts
16-Jul-18 23:04 24.638231 -80.929836 114 35215ft 441kts
16-Jul-18 23:05 24.584364 -80.808952 113 35216ft 440kts
16-Jul-18 23:06 24.530545 -80.688354 114 35196ft 440kts
16-Jul-18 23:07 24.476694 -80.567949 114 35168ft 439kts
16-Jul-18 23:08 24.422835 -80.447796 114 35154ft 438kts
16-Jul-18 23:09 24.368848 -80.327820 114 35131ft 438kts
16-Jul-18 23:10 24.314999 -80.208249 114 35124ft 437kts
16-Jul-18 23:11 24.260860 -80.088479 114 35118ft 438kts
16-Jul-18 23:12 24.206800 -79.969101 114 35152ft 438kts
16-Jul-18 23:13 24.152572 -79.849801 114 35191ft 437kts
16-Jul-18 23:14 24.098273 -79.730578 115 35212ft 438kts
16-Jul-18 23:15 24.052897 -79.631146 115 35211ft 438kts
16-Jul-18 23:16 23.998217 -79.511645 115 35210ft 439kts
16-Jul-18 23:17 23.943570 -79.392548 115 35216ft 439kts
16-Jul-18 23:18 23.879553 -79.253409 115 35207ft 439kts
16-Jul-18 23:19 23.824539 -79.134002 115 35181ft 440kts
16-Jul-18 23:20 23.769233 -79.014482 115 35145ft 441kts
16-Jul-18 23:21 23.723102 -78.914942 115 35173ft 441kts
16-Jul-18 23:22 23.667611 -78.795460 115 35154ft 442kts
16-Jul-18 23:23 23.612094 -78.676281 116 35202ft 441kts
16-Jul-18 23:24 23.556294 -78.556747 116 35205ft 442kts
16-Jul-18 23:25 23.500596 -78.437756 116 35207ft 441kts
16-Jul-18 23:26 23.444565 -78.318325 116 35203ft 441kts
16-Jul-18 23:27 23.388628 -78.199389 116 35202ft 441kts
16-Jul-18 23:28 23.332763 -78.080810 116 35171ft 442kts
16-Jul-18 23:29 23.276428 -77.961714 116 35183ft 441kts
16-Jul-18 23:30 23.220026 -77.842608 116 35118ft 443kts
16-Jul-18 23:31 23.163417 -77.723506 116 35109ft 445kts
16-Jul-18 23:32 23.106590 -77.604103 116 35195ft 445kts
16-Jul-18 23:33 23.049396 -77.484260 116 35196ft 447kts
16-Jul-18 23:34 22.992097 -77.364442 117 35198ft 447kts
16-Jul-18 23:35 22.934713 -77.244837 117 35190ft 447kts
16-Jul-18 23:36 22.877150 -77.125107 117 35195ft 447kts
16-Jul-18 23:37 22.819642 -77.005787 117 35172ft 448kts
16-Jul-18 23:38 22.761766 -76.885950 117 35146ft 449kts
16-Jul-18 23:39 22.703656 -76.765919 117 35165ft 449kts
16-Jul-18 23:40 22.645543 -76.646183 117 35140ft 450kts
16-Jul-18 23:41 22.587315 -76.526484 117 35177ft 450kts
16-Jul-18 23:42 22.528824 -76.406591 117 35203ft 450kts
16-Jul-18 23:43 22.470381 -76.286985 118 35176ft 451kts
16-Jul-18 23:44 22.411697 -76.167266 118 35180ft 451kts
16-Jul-18 23:45 22.352764 -76.047303 118 35177ft 451kts
16-Jul-18 23:46 22.293678 -75.927284 118 35180ft 451kts
16-Jul-18 23:47 22.234778 -75.807868 118 35183ft 452kts
16-Jul-18 23:48 22.175533 -75.688103 118 35179ft 452kts
16-Jul-18 23:49 22.116221 -75.568455 118 35184ft 452kts
16-Jul-18 23:50 22.056910 -75.449082 118 35182ft 452kts
16-Jul-18 23:51 21.997546 -75.329869 118 35164ft 452kts
16-Jul-18 23:52 21.937813 -75.210155 118 35106ft 454kts
16-Jul-18 23:53 21.877721 -75.090049 118 35124ft 456kts
16-Jul-18 23:54 21.817422 -74.969816 119 35175ft 458kts
16-Jul-18 23:55 21.756596 -74.848803 119 35174ft 459kts
16-Jul-18 23:56 21.695860 -74.728223 119 35174ft 458kts
16-Jul-18 23:57 21.635167 -74.607997 119 35159ft 458kts
16-Jul-18 23:58 21.574292 -74.487743 119 35161ft 457kts
16-Jul-18 23:59 21.513512 -74.367887 119 35158ft 457kts
17-Jul-18 00:00 21.452657 -74.248103 119 35146ft 457kts
17-Jul-18 00:01 21.391550 -74.128176 119 35129ft 457kts
17-Jul-18 00:02 21.330469 -74.008500 119 35094ft 458kts
17-Jul-18 00:03 21.269253 -73.888858 119 35096ft 458kts
17-Jul-18 00:04 21.207743 -73.768957 119 35074ft 458kts
17-Jul-18 00:05 21.146250 -73.649290 120 35079ft 459kts
17-Jul-18 00:06 21.084457 -73.529251 120 35129ft 460kts
17-Jul-18 00:07 21.022507 -73.409285 120 35163ft 461kts
17-Jul-18 00:08 20.960306 -73.289140 120 35160ft 461kts
17-Jul-18 00:09 20.898006 -73.168875 120 35158ft 461kts
17-Jul-18 00:10 20.835650 -73.049054 120 35144ft 461kts
17-Jul-18 00:11 20.773310 -72.929261 120 35132ft 461kts
17-Jul-18 00:12 20.710904 -72.809682 120 35130ft 461kts
17-Jul-18 00:13 20.648237 -72.689905 120 35115ft 461kts
17-Jul-18 00:14 20.585703 -72.570588 120 35126ft 461kts
17-Jul-18 00:15 20.522842 -72.450881 120 35124ft 461kts
17-Jul-18 00:16 20.460049 -72.331594 120 35127ft 461kts
17-Jul-18 00:17 20.400846 -72.210318 114 35113ft 463kts
17-Jul-18 00:18 20.351453 -72.084363 114 34033ft 453kts
17-Jul-18 00:19 20.300713 -71.957336 113 28972ft 481kts
17-Jul-18 00:20 20.251453 -71.833500 113 25813ft 428kts
17-Jul-18 00:21 20.205743 -71.718942 111 23374ft 405kts
17-Jul-18 00:22 20.141262 -71.632439 133 22434ft 353kts
17-Jul-18 00:23 20.073171 -71.558193 131 20260ft 343kts
17-Jul-18 00:24 20.008275 -71.486982 131 18524ft 326kts
17-Jul-18 00:25 19.945786 -71.418633 131 16891ft 319kts
17-Jul-18 00:26 19.884532 -71.351623 132 15480ft 313kts
17-Jul-18 00:27 19.824670 -71.286190 132 14001ft 303kts
17-Jul-18 00:28 19.766730 -71.223015 132 12544ft 296kts
17-Jul-18 00:29 19.709950 -71.161123 133 10998ft 285kts
17-Jul-18 00:30 19.655110 -71.101357 133 9455ft 281kts
17-Jul-18 00:31 19.601492 -71.043111 133 7786ft 271kts
17-Jul-18 00:32 19.550167 -70.987359 133 6586ft 243kts
17-Jul-18 00:33 19.506164 -70.939509 133 5447ft 230kts
17-Jul-18 00:34 19.468576 -70.889440 107 4413ft 205kts
17-Jul-18 00:35 19.456228 -70.834683 103 3989ft 170kts
17-Jul-18 00:36 19.445706 -70.786511 103 3546ft 155kts
17-Jul-18 00:37 19.436974 -70.746468 103 2893ft 135kts
17-Jul-18 00:38 19.428607 -70.708105 103 2197ft 132kts
17-Jul-18 00:39 19.420355 -70.670244 104 1537ft 130kts
17-Jul-18 00:40 19.412242 -70.633052 104 894ft 129kts
17-Jul-18 00:41 19.405824 -70.603599 103 579ft 36kts
17-Jul-18 00:42 19.403840 -70.599973 192 579ft 0kts
17-Jul-18 00:43 19.403601 -70.600049 202 579ft 9kts
17-Jul-18 00:44 19.402522 -70.601079 230 579ft 0kts
17-Jul-18 00:45 19.402522 -70.601079 230 579ft 0kts
17-Jul-18 00:46 19.402522 -70.601079 230 579ft 0kts
17-Jul-18 00:47 19.402522 -70.601079 230 579ft 0kts

Navigation Log

Ident Type
Flight plan parsing failed, navigation log unavailable